Cavalcante, Brazil
Current Conditions -  °F | °C
As of 1:00 PM on Friday 31 Oct 2014 (Local Time) from SBBR Reporting Station
Broken Clouds Broken Clouds  
Wind Chill: 75°   Ceiling: 3000
Heat Index: 75°   Visibility: 6mi
Dew Point: 63°   Wind: 10mph
Humidity: 65%   Direction: 350°N
Pressure: 30.12"   Gusts: NA
Location:  13.8°S, 47.46°W
Report Text: SBBR 311500Z 35009KT 9999 BKN030 24/17 Q1020
Loading
Personal Weather Stations






























Interactive Weather Map
Tropical Storm Tracking
New forecast layout! Learn more

10-Day Weather Forecast

Advertisements
Track Severe Weather on mobile